createdAt,value
2022-09-11T00:01:58.731Z,16.11
2022-09-11T00:04:27.812Z,16.16
2022-09-11T00:06:59.591Z,16.19
2022-09-11T00:09:29.593Z,16.19
2022-09-11T00:11:58.330Z,15.99
2022-09-11T00:14:28.323Z,16.21
2022-09-11T00:16:59.800Z,16.25
2022-09-11T00:19:28.320Z,16.06
2022-09-11T00:21:57.539Z,15.94
2022-09-11T00:24:26.357Z,16.06
2022-09-11T00:27:01.292Z,16.11
2022-09-11T00:29:32.654Z,16.21
2022-09-11T00:32:01.028Z,16.16
2022-09-11T00:34:29.587Z,16.03
2022-09-11T00:36:59.560Z,16.25
2022-09-11T00:39:27.967Z,16.32
2022-09-11T00:41:58.464Z,16.27
2022-09-11T00:45:01.966Z,16.33
2022-09-11T00:47:33.391Z,16.34
2022-09-11T00:50:11.430Z,16.07
2022-09-11T00:52:44.636Z,15.92
2022-09-11T00:55:16.316Z,15.96
2022-09-11T00:57:52.170Z,15.98
2022-09-11T01:00:21.321Z,15.90
2022-09-11T01:02:53.752Z,15.84
2022-09-11T01:05:23.967Z,15.78
2022-09-11T01:07:54.935Z,15.73
2022-09-11T01:10:35.507Z,15.76
2022-09-11T01:13:18.750Z,15.69
2022-09-11T01:15:54.675Z,15.62
2022-09-11T01:18:28.592Z,15.79
2022-09-11T01:21:20.065Z,15.76
2022-09-11T01:24:10.564Z,15.79
2022-09-11T01:26:55.716Z,15.66
2022-09-11T01:29:31.068Z,15.89
2022-09-11T01:32:17.511Z,15.59
2022-09-11T01:34:54.503Z,15.61
2022-09-11T01:37:28.545Z,15.64
2022-09-11T01:40:03.415Z,15.77
2022-09-11T01:42:35.051Z,15.79
2022-09-11T01:45:07.438Z,15.59
2022-09-11T01:47:38.432Z,15.56
2022-09-11T01:50:11.679Z,15.51
2022-09-11T01:52:47.575Z,15.43
2022-09-11T01:55:22.061Z,15.44
2022-09-11T01:57:56.491Z,15.47
2022-09-11T02:00:28.917Z,15.45
2022-09-11T02:03:05.479Z,15.78
2022-09-11T02:05:37.845Z,15.93
2022-09-11T02:08:14.078Z,16.08
2022-09-11T02:10:49.102Z,15.89
2022-09-11T02:13:27.828Z,15.76
2022-09-11T02:16:06.954Z,15.96
2022-09-11T02:18:43.200Z,16.01
2022-09-11T02:21:13.618Z,16.11
2022-09-11T02:23:42.675Z,16.11
2022-09-11T02:26:12.533Z,16.02
2022-09-11T02:28:40.706Z,15.97
2022-09-11T02:31:11.277Z,15.89
2022-09-11T02:33:39.750Z,15.65
2022-09-11T02:36:28.466Z,15.95
2022-09-11T02:39:13.355Z,15.79
2022-09-11T02:42:00.941Z,15.46
2022-09-11T02:44:38.192Z,15.29
2022-09-11T02:47:20.965Z,15.09
2022-09-11T02:50:05.536Z,15.25
2022-09-11T02:52:47.858Z,15.16
2022-09-11T02:55:23.927Z,15.35
2022-09-11T02:58:02.301Z,15.46
2022-09-11T03:00:31.458Z,15.26
2022-09-11T03:03:02.624Z,15.29
2022-09-11T03:05:31.874Z,15.16
2022-09-11T03:08:00.395Z,15.37
2022-09-11T03:10:32.262Z,15.29
2022-09-11T03:13:00.589Z,15.14
2022-09-11T03:15:29.205Z,15.19
2022-09-11T03:17:58.047Z,15.03
2022-09-11T03:20:28.017Z,15.09
2022-09-11T03:22:56.828Z,15.08
2022-09-11T03:25:28.407Z,15.14
2022-09-11T03:27:56.758Z,14.98
2022-09-11T03:30:27.319Z,14.90
2022-09-11T03:32:58.692Z,14.94
2022-09-11T03:35:30.215Z,14.97
2022-09-11T03:38:04.185Z,15.00
2022-09-11T03:40:33.659Z,15.09
2022-09-11T03:43:02.934Z,15.06
2022-09-11T03:45:32.778Z,15.04
2022-09-11T03:48:01.533Z,15.16
2022-09-11T03:50:31.716Z,15.13
2022-09-11T03:53:00.769Z,15.22
2022-09-11T03:55:29.910Z,15.16
2022-09-11T03:57:59.237Z,15.19
2022-09-11T04:00:27.999Z,15.20
2022-09-11T04:02:58.032Z,15.11
2022-09-11T04:05:26.956Z,15.21
2022-09-11T04:07:56.952Z,15.17
2022-09-11T04:10:25.224Z,15.09
2022-09-11T04:12:53.629Z,15.28
2022-09-11T04:15:22.570Z,15.20
2022-09-11T04:17:51.147Z,15.17
2022-09-11T04:20:22.095Z,15.14
2022-09-11T04:22:51.192Z,15.11
2022-09-11T04:25:21.410Z,15.08
2022-09-11T04:27:49.871Z,15.07
2022-09-11T04:30:18.579Z,15.02
2022-09-11T04:32:48.024Z,15.01
2022-09-11T04:35:19.424Z,14.94
2022-09-11T04:37:48.459Z,15.10
2022-09-11T04:40:16.781Z,14.99
2022-09-11T04:42:46.963Z,14.98
2022-09-11T04:45:16.367Z,14.95
2022-09-11T04:47:48.468Z,14.80
2022-09-11T04:50:17.093Z,14.80
2022-09-11T04:52:47.826Z,14.84
2022-09-11T04:55:17.202Z,14.80
2022-09-11T04:57:49.827Z,14.78
2022-09-11T05:00:19.070Z,14.76
2022-09-11T05:02:49.731Z,14.70
2022-09-11T05:05:18.159Z,14.78
2022-09-11T05:07:49.456Z,14.77
2022-09-11T05:10:17.904Z,14.82
2022-09-11T05:12:47.779Z,14.89
2022-09-11T05:15:19.830Z,14.76
2022-09-11T05:17:49.032Z,14.82
2022-09-11T05:20:17.793Z,14.75
2022-09-11T05:22:47.296Z,14.84
2022-09-11T05:25:15.804Z,14.91
2022-09-11T05:27:43.929Z,14.89
2022-09-11T05:30:15.848Z,14.72
2022-09-11T05:32:44.569Z,14.69
2022-09-11T05:35:13.003Z,14.59
2022-09-11T05:37:41.630Z,14.66
2022-09-11T05:40:11.265Z,14.86
2022-09-11T05:42:45.216Z,14.86
2022-09-11T05:45:16.012Z,14.86
2022-09-11T05:47:46.312Z,14.68
2022-09-11T05:50:14.941Z,14.61
2022-09-11T05:52:43.383Z,14.61
2022-09-11T05:55:11.868Z,14.66
2022-09-11T05:57:42.543Z,14.89
2022-09-11T06:00:13.436Z,14.96
2022-09-11T06:02:45.538Z,14.93
2022-09-11T06:05:14.147Z,14.89
2022-09-11T06:07:42.637Z,14.98
2022-09-11T06:10:11.672Z,14.87
2022-09-11T06:12:39.967Z,14.91
2022-09-11T06:15:24.867Z,14.85
2022-09-11T06:18:02.797Z,15.07
2022-09-11T06:20:32.757Z,15.20
2022-09-11T06:23:02.639Z,15.21
2022-09-11T06:25:32.629Z,15.20
2022-09-11T06:28:01.139Z,15.34
2022-09-11T06:30:30.023Z,15.41
2022-09-11T06:33:00.628Z,15.66
2022-09-11T06:35:29.048Z,15.74
2022-09-11T06:37:57.453Z,15.85
2022-09-11T06:40:27.575Z,15.69
2022-09-11T06:42:56.062Z,15.95
2022-09-11T06:45:26.297Z,16.00
2022-09-11T06:47:56.418Z,15.99
2022-09-11T06:50:28.377Z,16.01
2022-09-11T06:52:56.645Z,15.98
2022-09-11T06:55:24.730Z,16.11
2022-09-11T06:57:52.861Z,16.22
2022-09-11T07:00:21.386Z,16.27
2022-09-11T07:02:53.193Z,16.27
2022-09-11T07:05:23.658Z,16.28
2022-09-11T07:07:55.958Z,16.33
2022-09-11T07:10:24.841Z,16.29
2022-09-11T07:12:55.611Z,16.36
2022-09-11T07:15:23.960Z,16.43
2022-09-11T07:17:52.382Z,16.56
2022-09-11T07:20:20.971Z,16.51
2022-09-11T07:22:49.090Z,16.51
2022-09-11T07:25:19.040Z,16.58
2022-09-11T07:27:47.411Z,16.67
2022-09-11T07:30:16.087Z,16.72
2022-09-11T07:32:45.360Z,16.74
2022-09-11T07:35:21.608Z,16.76
2022-09-11T07:37:51.037Z,16.92
2022-09-11T07:40:21.473Z,16.81
2022-09-11T07:42:51.480Z,16.75
2022-09-11T07:45:22.550Z,16.83
2022-09-11T07:47:51.122Z,16.87
2022-09-11T07:50:19.328Z,17.00
2022-09-11T07:52:48.610Z,17.01
2022-09-11T07:55:17.157Z,17.14
2022-09-11T07:57:50.810Z,17.17
2022-09-11T08:00:20.311Z,16.82
2022-09-11T08:02:48.994Z,17.04
2022-09-11T08:05:18.822Z,16.98
2022-09-11T08:07:47.160Z,17.00
2022-09-11T08:10:27.306Z,17.28
2022-09-11T08:13:00.286Z,17.09
2022-09-11T08:15:31.578Z,17.24
2022-09-11T08:18:00.966Z,17.38
2022-09-11T08:20:29.151Z,17.17
2022-09-11T08:22:57.341Z,17.46
2022-09-11T08:25:25.511Z,17.66
2022-09-11T08:27:53.929Z,17.70
2022-09-11T08:30:24.005Z,17.81
2022-09-11T08:32:52.149Z,17.98
2022-09-11T08:35:20.706Z,18.38
2022-09-11T08:37:52.884Z,18.62
2022-09-11T08:40:24.232Z,18.66
2022-09-11T08:42:56.059Z,18.44
2022-09-11T08:45:30.130Z,18.60
2022-09-11T08:48:00.967Z,18.66
2022-09-11T08:50:36.251Z,18.87
2022-09-11T08:53:09.721Z,19.06
2022-09-11T08:55:46.747Z,19.00
2022-09-11T08:58:22.357Z,19.10
2022-09-11T09:00:59.528Z,18.85
2022-09-11T09:03:43.287Z,18.73
2022-09-11T09:06:26.423Z,18.65
2022-09-11T09:09:04.040Z,18.68
2022-09-11T09:11:42.080Z,18.77
2022-09-11T09:14:34.130Z,18.81
2022-09-11T09:17:06.908Z,18.95
2022-09-11T09:19:40.061Z,19.37
2022-09-11T09:22:17.583Z,19.79
2022-09-11T09:24:50.527Z,19.85
2022-09-11T09:27:23.374Z,19.76
2022-09-11T09:29:58.207Z,19.40
2022-09-11T09:32:46.365Z,19.83
2022-09-11T09:35:19.736Z,19.94
2022-09-11T09:37:48.851Z,19.81
2022-09-11T09:40:19.353Z,20.19
2022-09-11T09:43:12.309Z,20.16
2022-09-11T09:45:50.084Z,20.30
2022-09-11T09:48:20.950Z,20.25
2022-09-11T09:50:49.405Z,20.18
2022-09-11T09:53:32.734Z,19.98
2022-09-11T09:56:01.972Z,19.88
2022-09-11T09:58:36.324Z,19.53
2022-09-11T10:01:04.969Z,19.51
2022-09-11T10:03:35.266Z,19.63
2022-09-11T10:06:10.267Z,19.59
2022-09-11T10:08:39.665Z,19.14
2022-09-11T10:11:12.336Z,19.79
2022-09-11T10:13:44.360Z,19.49
2022-09-11T10:16:22.135Z,19.99
2022-09-11T10:18:53.609Z,20.81
2022-09-11T10:21:25.447Z,20.80
2022-09-11T10:23:57.156Z,20.77
2022-09-11T10:26:30.516Z,21.01
2022-09-11T10:29:07.292Z,21.12
2022-09-11T10:31:37.475Z,21.57
2022-09-11T10:34:08.372Z,21.90
2022-09-11T10:36:36.955Z,21.75
2022-09-11T10:39:06.471Z,21.44
2022-09-11T10:41:36.469Z,21.60
2022-09-11T10:44:08.092Z,21.74
2022-09-11T10:46:40.862Z,21.64
2022-09-11T10:49:19.693Z,20.99
2022-09-11T10:52:06.158Z,20.99
2022-09-11T10:55:00.316Z,21.12
2022-09-11T10:57:33.732Z,20.85
2022-09-11T11:00:09.448Z,20.83
2022-09-11T11:02:41.337Z,20.64
2022-09-11T11:05:21.318Z,20.43
2022-09-11T11:08:13.643Z,20.67
2022-09-11T11:10:59.736Z,20.84
2022-09-11T11:13:43.173Z,20.99
2022-09-11T11:16:25.746Z,21.53
2022-09-11T11:19:10.983Z,22.34
2022-09-11T11:21:53.484Z,22.76
2022-09-11T11:24:35.790Z,23.24
2022-09-11T11:27:33.509Z,23.23
2022-09-11T11:30:11.418Z,23.02
2022-09-11T11:32:58.490Z,23.26
2022-09-11T11:35:36.193Z,22.59
2022-09-11T11:38:16.753Z,22.51
2022-09-11T11:40:49.599Z,22.48
2022-09-11T11:43:24.957Z,22.10
2022-09-11T11:45:59.640Z,22.37
2022-09-11T11:48:37.088Z,22.38
2022-09-11T11:51:10.267Z,22.16
2022-09-11T11:53:48.799Z,22.10
2022-09-11T11:56:27.607Z,22.22
2022-09-11T11:59:04.329Z,22.12
2022-09-11T12:01:40.347Z,22.72
2022-09-11T12:04:20.281Z,23.22
2022-09-11T12:06:49.037Z,23.65
2022-09-11T12:09:20.748Z,23.70
2022-09-11T12:11:53.240Z,24.39
2022-09-11T12:14:29.161Z,25.07
2022-09-11T12:16:58.561Z,24.94
2022-09-11T12:19:27.149Z,24.82
2022-09-11T12:22:16.141Z,24.92
2022-09-11T12:25:32.466Z,24.36
2022-09-11T12:28:21.343Z,23.79
2022-09-11T12:31:02.186Z,23.69
2022-09-11T12:33:58.550Z,23.76
2022-09-11T12:36:51.732Z,23.38
2022-09-11T12:39:27.966Z,23.38
2022-09-11T12:42:29.388Z,22.45
2022-09-11T12:45:01.466Z,22.79
2022-09-11T12:47:36.928Z,22.82
2022-09-11T12:50:17.546Z,22.52
2022-09-11T12:52:52.190Z,22.50
2022-09-11T12:55:33.456Z,22.43
2022-09-11T12:58:05.477Z,22.38
2022-09-11T13:00:40.965Z,22.24
2022-09-11T13:03:19.186Z,21.99
2022-09-11T13:05:55.648Z,22.47
2022-09-11T13:08:27.864Z,22.97
2022-09-11T13:11:36.427Z,23.44
2022-09-11T13:14:09.247Z,23.89
2022-09-11T13:16:50.772Z,24.27
2022-09-11T13:19:20.921Z,24.81
2022-09-11T13:21:56.953Z,24.72
2022-09-11T13:24:26.819Z,24.82
2022-09-11T13:27:00.763Z,24.17
2022-09-11T13:29:30.860Z,24.42
2022-09-11T13:32:11.566Z,24.08
2022-09-11T13:34:40.754Z,23.82
2022-09-11T13:37:11.318Z,24.07
2022-09-11T13:39:43.001Z,23.56
2022-09-11T13:42:16.859Z,23.86
2022-09-11T13:44:47.816Z,24.20
2022-09-11T13:47:22.098Z,23.92
2022-09-11T13:49:53.500Z,23.39
2022-09-11T13:52:24.820Z,22.65
2022-09-11T13:54:55.945Z,22.98
2022-09-11T13:57:26.447Z,23.63
2022-09-11T13:59:57.181Z,23.82
2022-09-11T14:02:54.065Z,24.14
2022-09-11T14:05:26.402Z,24.73
2022-09-11T14:08:01.743Z,25.38
2022-09-11T14:10:35.645Z,25.19
2022-09-11T14:13:15.290Z,24.38
2022-09-11T14:15:52.219Z,24.59
2022-09-11T14:18:33.920Z,24.97
2022-09-11T14:21:07.868Z,25.45
2022-09-11T14:23:44.097Z,25.21
2022-09-11T14:26:17.138Z,24.93
2022-09-11T14:29:02.555Z,24.44
2022-09-11T14:31:35.893Z,23.99
2022-09-11T14:34:19.561Z,24.40
2022-09-11T14:36:53.574Z,23.96
2022-09-11T14:39:36.512Z,23.79
2022-09-11T14:42:09.438Z,23.79
2022-09-11T14:44:39.634Z,23.45
2022-09-11T14:47:16.465Z,23.72
2022-09-11T14:49:47.175Z,23.87
2022-09-11T14:52:19.775Z,24.20
2022-09-11T14:54:51.615Z,24.51
2022-09-11T14:57:23.166Z,25.05
2022-09-11T14:59:54.462Z,25.18
2022-09-11T15:02:25.829Z,25.35
2022-09-11T15:04:57.996Z,25.29
2022-09-11T15:07:29.202Z,25.10
2022-09-11T15:09:57.839Z,25.23
2022-09-11T15:12:29.471Z,25.11
2022-09-11T15:14:59.413Z,25.14
2022-09-11T15:17:31.975Z,24.82
2022-09-11T15:20:02.611Z,24.87
2022-09-11T15:22:35.386Z,24.47
2022-09-11T15:25:03.856Z,24.50
2022-09-11T15:27:32.294Z,24.35
2022-09-11T15:30:00.799Z,24.24
2022-09-11T15:32:29.316Z,24.02
2022-09-11T15:34:57.537Z,24.07
2022-09-11T15:37:27.700Z,24.22
2022-09-11T15:39:56.408Z,24.05
2022-09-11T15:42:25.658Z,24.02
2022-09-11T15:44:54.562Z,24.20
2022-09-11T15:47:23.190Z,24.20
2022-09-11T15:49:51.818Z,24.84
2022-09-11T15:52:20.407Z,25.16
2022-09-11T15:54:51.120Z,25.10
2022-09-11T15:57:19.958Z,24.77
2022-09-11T15:59:50.164Z,24.49
2022-09-11T16:02:18.921Z,24.34
2022-09-11T16:04:51.647Z,24.00
2022-09-11T16:07:22.417Z,23.83
2022-09-11T16:09:52.782Z,23.69
2022-09-11T16:12:24.495Z,23.55
2022-09-11T16:14:52.830Z,23.44
2022-09-11T16:17:23.264Z,23.49
2022-09-11T16:19:55.250Z,23.28
2022-09-11T16:22:25.892Z,23.44
2022-09-11T16:24:56.548Z,23.25
2022-09-11T16:27:26.018Z,23.19
2022-09-11T16:30:39.204Z,23.10
2022-09-11T16:32:45.443Z,23.15
2022-09-11T16:35:15.682Z,22.98
2022-09-11T16:37:44.394Z,22.88
2022-09-11T16:40:16.986Z,22.88
2022-09-11T16:42:46.709Z,22.72
2022-09-11T16:45:16.075Z,22.80
2022-09-11T16:47:44.784Z,22.79
2022-09-11T16:50:13.356Z,22.89
2022-09-11T16:52:41.394Z,22.81
2022-09-11T16:55:11.702Z,22.78
2022-09-11T16:57:41.680Z,23.27
2022-09-11T17:00:14.712Z,23.94
2022-09-11T17:02:43.099Z,23.87
2022-09-11T17:05:12.459Z,24.42
2022-09-11T17:07:45.632Z,24.87
2022-09-11T17:10:15.507Z,24.89
2022-09-11T17:12:45.270Z,24.78
2022-09-11T17:15:13.568Z,24.58
2022-09-11T17:17:43.872Z,24.52
2022-09-11T17:20:13.323Z,24.02
2022-09-11T17:22:41.879Z,23.70
2022-09-11T17:25:12.128Z,23.13
2022-09-11T17:27:40.497Z,22.84
2022-09-11T17:30:17.093Z,22.51
2022-09-11T17:32:45.905Z,22.03
2022-09-11T17:35:14.876Z,22.04
2022-09-11T17:37:46.203Z,21.98
2022-09-11T17:40:15.249Z,21.97
2022-09-11T17:42:43.901Z,21.84
2022-09-11T17:45:15.777Z,21.46
2022-09-11T17:47:44.494Z,21.44
2022-09-11T17:50:15.198Z,21.32
2022-09-11T17:52:43.674Z,21.16
2022-09-11T17:55:12.054Z,21.13
2022-09-11T17:57:44.505Z,21.12
2022-09-11T18:00:17.064Z,21.10
2022-09-11T18:02:46.814Z,21.06
2022-09-11T18:05:17.608Z,20.91
2022-09-11T18:07:48.391Z,20.65
2022-09-11T18:10:16.796Z,20.59
2022-09-11T18:12:45.138Z,20.30
2022-09-11T18:15:16.018Z,20.14
2022-09-11T18:17:48.184Z,20.00
2022-09-11T18:20:18.133Z,19.80
2022-09-11T18:22:46.215Z,20.04
2022-09-11T18:25:17.453Z,20.05
2022-09-11T18:27:49.956Z,20.00
2022-09-11T18:30:20.957Z,19.99
2022-09-11T18:32:50.021Z,19.98
2022-09-11T18:35:19.066Z,20.00
2022-09-11T18:37:49.316Z,19.96
2022-09-11T18:40:18.257Z,19.87
2022-09-11T18:42:46.864Z,19.84
2022-09-11T18:45:18.998Z,19.95
2022-09-11T18:47:53.288Z,19.83
2022-09-11T18:50:24.323Z,19.62
2022-09-11T18:52:54.865Z,19.44
2022-09-11T18:55:24.575Z,19.22
2022-09-11T18:57:55.638Z,18.88
2022-09-11T19:00:24.032Z,18.68
2022-09-11T19:02:57.269Z,18.77
2022-09-11T19:05:26.559Z,18.64
2022-09-11T19:08:04.182Z,18.41
2022-09-11T19:10:32.651Z,18.51
2022-09-11T19:13:01.281Z,18.52
2022-09-11T19:15:31.880Z,18.43
2022-09-11T19:18:02.424Z,18.57
2022-09-11T19:20:31.163Z,18.56
2022-09-11T19:23:02.912Z,18.32
2022-09-11T19:25:31.906Z,18.39
2022-09-11T19:28:00.413Z,18.26
2022-09-11T19:30:29.475Z,18.25
2022-09-11T19:32:57.703Z,18.41
2022-09-11T19:35:30.176Z,18.39
2022-09-11T19:38:00.272Z,18.41
2022-09-11T19:40:28.536Z,18.41
2022-09-11T19:42:57.850Z,18.11
2022-09-11T19:45:27.952Z,17.97
2022-09-11T19:48:00.223Z,17.84
2022-09-11T19:50:34.054Z,17.74
2022-09-11T19:53:04.149Z,17.85
2022-09-11T19:55:35.410Z,17.80
2022-09-11T19:58:04.956Z,17.66
2022-09-11T20:00:33.562Z,17.71
2022-09-11T20:03:02.742Z,17.88
2022-09-11T20:05:34.298Z,17.82
2022-09-11T20:08:03.997Z,17.78
2022-09-11T20:10:32.442Z,17.58
2022-09-11T20:13:01.146Z,17.68
2022-09-11T20:15:29.674Z,17.32
2022-09-11T20:17:57.981Z,17.39
2022-09-11T20:20:26.674Z,17.32
2022-09-11T20:23:00.461Z,17.10
2022-09-11T20:25:29.295Z,17.01
2022-09-11T20:27:57.931Z,16.81
2022-09-11T20:30:27.218Z,16.86
2022-09-11T20:32:57.572Z,16.84
2022-09-11T20:35:27.533Z,16.75
2022-09-11T20:37:57.993Z,16.77
2022-09-11T20:40:27.650Z,16.50
2022-09-11T20:42:56.043Z,16.45
2022-09-11T20:45:24.392Z,16.56
2022-09-11T20:48:00.484Z,16.50
2022-09-11T20:50:29.487Z,16.56
2022-09-11T20:53:00.504Z,16.50
2022-09-11T20:55:31.910Z,16.69
2022-09-11T20:58:00.768Z,16.69
2022-09-11T21:00:30.808Z,16.59
2022-09-11T21:03:01.271Z,16.50
2022-09-11T21:05:29.499Z,16.54
2022-09-11T21:08:00.712Z,16.51
2022-09-11T21:10:29.282Z,16.70
2022-09-11T21:12:58.697Z,16.49
2022-09-11T21:15:27.176Z,16.57
2022-09-11T21:17:55.198Z,16.57
2022-09-11T21:20:24.128Z,16.55
2022-09-11T21:22:52.634Z,16.69
2022-09-11T21:25:22.618Z,16.57
2022-09-11T21:27:51.225Z,16.54
2022-09-11T21:30:19.880Z,16.56
2022-09-11T21:32:48.280Z,16.49
2022-09-11T21:35:17.276Z,16.42
2022-09-11T21:37:53.193Z,16.29
2022-09-11T21:40:25.739Z,16.29
2022-09-11T21:42:54.222Z,16.25
2022-09-11T21:45:23.100Z,16.30
2022-09-11T21:47:54.443Z,16.29
2022-09-11T21:50:23.575Z,16.26
2022-09-11T21:52:52.237Z,16.16
2022-09-11T21:55:21.848Z,15.95
2022-09-11T21:57:51.765Z,15.91
2022-09-11T22:00:21.275Z,15.89
2022-09-11T22:02:49.908Z,15.88
2022-09-11T22:05:20.827Z,15.94
2022-09-11T22:07:49.409Z,15.90
2022-09-11T22:10:18.272Z,15.91
2022-09-11T22:12:46.936Z,15.85
2022-09-11T22:15:17.272Z,15.72
2022-09-11T22:17:46.949Z,15.91
2022-09-11T22:20:15.372Z,15.54
2022-09-11T22:22:44.180Z,15.54
2022-09-11T22:25:12.737Z,15.56
2022-09-11T22:27:41.049Z,15.43
2022-09-11T22:30:10.151Z,15.36
2022-09-11T22:32:46.264Z,15.49
2022-09-11T22:35:15.303Z,15.35
2022-09-11T22:37:44.795Z,15.38
2022-09-11T22:40:13.219Z,15.44
2022-09-11T22:42:43.103Z,15.40
2022-09-11T22:45:12.146Z,15.50
2022-09-11T22:47:40.717Z,15.46
2022-09-11T22:50:11.832Z,15.44
2022-09-11T22:52:40.600Z,15.37
2022-09-11T22:55:12.344Z,15.38
2022-09-11T22:57:40.758Z,15.29
2022-09-11T23:00:12.231Z,15.26
2022-09-11T23:02:40.940Z,15.16
2022-09-11T23:05:28.358Z,15.11
2022-09-11T23:07:56.435Z,15.08
2022-09-11T23:10:27.250Z,14.98
2022-09-11T23:12:55.881Z,14.93
2022-09-11T23:15:24.251Z,14.83
2022-09-11T23:17:52.383Z,14.81
2022-09-11T23:20:22.542Z,14.86
2022-09-11T23:22:51.193Z,14.90
2022-09-11T23:25:21.805Z,14.97
2022-09-11T23:27:50.488Z,14.95
2022-09-11T23:30:19.479Z,14.88
2022-09-11T23:32:47.906Z,14.89
2022-09-11T23:35:17.113Z,15.03
2022-09-11T23:37:46.915Z,14.80
2022-09-11T23:40:16.130Z,14.85
2022-09-11T23:42:47.078Z,14.84
2022-09-11T23:45:16.824Z,14.89
2022-09-11T23:47:45.144Z,14.72
2022-09-11T23:50:13.837Z,14.82
2022-09-11T23:52:42.192Z,14.72
2022-09-11T23:55:12.981Z,14.73
2022-09-11T23:57:41.289Z,14.68
